createdAt,value
2017-06-01T00:02:00.306Z,12.30
2017-06-01T00:04:28.225Z,12.60
2017-06-01T00:06:56.130Z,12.50
2017-06-01T00:09:23.610Z,12.50
2017-06-01T00:11:51.506Z,11.80
2017-06-01T00:14:19.382Z,11.70
2017-06-01T00:16:46.867Z,11.70
2017-06-01T00:19:14.769Z,12.10
2017-06-01T00:21:42.650Z,12.10
2017-06-01T00:24:10.151Z,12.10
2017-06-01T00:26:38.033Z,12.20
2017-06-01T00:29:05.918Z,11.90
2017-06-01T00:31:33.805Z,12.10
2017-06-01T00:34:01.702Z,12.20
2017-06-01T00:36:29.566Z,12.00
2017-06-01T00:38:57.441Z,11.80
2017-06-01T00:41:24.958Z,11.80
2017-06-01T00:43:52.829Z,11.20
2017-06-01T00:46:20.302Z,11.20
2017-06-01T00:48:48.211Z,10.60
2017-06-01T00:51:16.106Z,10.50
2017-06-01T00:53:43.974Z,10.40
2017-06-01T00:56:11.881Z,10.40
2017-06-01T00:58:39.754Z,10.80
2017-06-01T01:01:07.645Z,11.00
2017-06-01T01:03:35.837Z,11.40
2017-06-01T01:06:03.726Z,11.00
2017-06-01T01:08:31.216Z,11.10
2017-06-01T01:10:58.794Z,10.50
2017-06-01T01:13:26.670Z,10.40
2017-06-01T01:15:54.150Z,10.40
2017-06-01T01:18:21.666Z,10.30
2017-06-01T01:20:49.544Z,10.50
2017-06-01T01:23:17.427Z,10.40
2017-06-01T01:25:44.937Z,10.40
2017-06-01T01:28:12.806Z,11.00
2017-06-01T01:30:40.701Z,11.30
2017-06-01T01:33:08.473Z,11.30
2017-06-01T01:35:36.362Z,11.60
2017-06-01T01:38:04.237Z,11.30
2017-06-01T01:40:31.743Z,11.20
2017-06-01T01:42:59.630Z,10.80
2017-06-01T01:45:27.513Z,10.60
2017-06-01T01:47:55.430Z,10.70
2017-06-01T01:50:23.303Z,11.00
2017-06-01T01:52:51.178Z,10.90
2017-06-01T01:55:19.066Z,11.30
2017-06-01T01:57:46.962Z,11.00
2017-06-01T02:00:14.854Z,11.00
2017-06-01T02:02:42.943Z,11.00
2017-06-01T02:05:10.835Z,11.20
2017-06-01T02:07:38.729Z,11.30
2017-06-01T02:10:06.242Z,11.30
2017-06-01T02:12:34.118Z,11.20
2017-06-01T02:15:02.010Z,11.10
2017-06-01T02:17:30.142Z,11.20
2017-06-01T02:19:58.014Z,10.90
2017-06-01T02:22:25.492Z,10.90
2017-06-01T02:24:53.402Z,11.30
2017-06-01T02:27:21.290Z,11.20
2017-06-01T02:29:49.165Z,11.40
2017-06-01T02:32:17.323Z,11.50
2017-06-01T02:34:45.193Z,11.30
2017-06-01T02:37:13.140Z,11.40
2017-06-01T02:39:40.805Z,11.40
2017-06-01T02:42:08.689Z,11.10
2017-06-01T02:44:36.553Z,10.80
2017-06-01T02:47:04.464Z,10.80
2017-06-01T02:49:32.342Z,11.10
2017-06-01T02:52:00.218Z,11.30
2017-06-01T02:54:27.901Z,11.30
2017-06-01T02:56:55.777Z,10.90
2017-06-01T02:59:23.651Z,10.90
2017-06-01T03:01:51.547Z,10.90
2017-06-01T03:04:19.433Z,10.90
2017-06-01T03:06:47.311Z,11.10
2017-06-01T03:09:15.222Z,11.10
2017-06-01T03:11:42.702Z,11.20
2017-06-01T03:14:10.574Z,11.30
2017-06-01T03:16:38.110Z,11.30
2017-06-01T03:19:05.986Z,11.40
2017-06-01T03:21:33.458Z,11.40
2017-06-01T03:24:01.345Z,11.20
2017-06-01T03:26:29.225Z,11.20
2017-06-01T03:28:57.110Z,10.30
2017-06-01T03:31:25.029Z,10.30
2017-06-01T03:33:52.500Z,10.30
2017-06-01T03:36:20.376Z,10.30
2017-06-01T03:38:47.890Z,10.30
2017-06-01T03:41:15.758Z,10.40
2017-06-01T03:43:43.621Z,9.80
2017-06-01T03:46:11.543Z,9.40
2017-06-01T03:48:39.425Z,9.30
2017-06-01T03:51:07.290Z,9.40
2017-06-01T03:53:35.192Z,9.50
2017-06-01T03:56:03.057Z,9.50
2017-06-01T03:58:30.921Z,9.30
2017-06-01T04:00:58.440Z,9.30
2017-06-01T04:03:25.926Z,9.60
2017-06-01T04:05:53.798Z,9.80
2017-06-01T04:08:21.859Z,9.70
2017-06-01T04:10:49.725Z,9.60
2017-06-01T04:13:17.609Z,9.60
2017-06-01T04:15:45.521Z,9.70
2017-06-01T04:18:13.391Z,9.70
2017-06-01T04:20:41.255Z,9.70
2017-06-01T04:23:09.167Z,9.70
2017-06-01T04:25:37.054Z,9.80
2017-06-01T04:28:04.930Z,10.50
2017-06-01T04:30:33.093Z,10.30
2017-06-01T04:33:00.972Z,10.20
2017-06-01T04:35:28.465Z,10.20
2017-06-01T04:37:56.269Z,10.10
2017-06-01T04:40:24.162Z,10.20
2017-06-01T04:42:52.050Z,10.40
2017-06-01T04:45:19.961Z,10.70
2017-06-01T04:47:47.834Z,10.70
2017-06-01T04:50:15.711Z,10.70
2017-06-01T04:52:44.357Z,11.00
2017-06-01T04:55:12.292Z,11.00
2017-06-01T04:57:40.120Z,11.10
2017-06-01T05:00:08.127Z,11.20
2017-06-01T05:02:36.025Z,11.10
2017-06-01T05:05:03.919Z,11.40
2017-06-01T05:07:31.824Z,11.40
2017-06-01T05:09:59.699Z,11.40
2017-06-01T05:12:27.572Z,11.50
2017-06-01T05:14:55.477Z,11.40
2017-06-01T05:17:23.355Z,11.40
2017-06-01T05:19:51.222Z,11.50
2017-06-01T05:22:19.123Z,11.80
2017-06-01T05:24:46.998Z,11.50
2017-06-01T05:27:14.490Z,11.50
2017-06-01T05:29:42.663Z,12.40
2017-06-01T05:32:10.524Z,12.40
2017-06-01T05:34:38.397Z,12.60
2017-06-01T05:37:06.306Z,12.30
2017-06-01T05:39:34.190Z,12.30
2017-06-01T05:42:02.057Z,12.60
2017-06-01T05:44:30.254Z,12.30
2017-06-01T05:46:58.140Z,12.50
2017-06-01T05:49:26.010Z,12.40
2017-06-01T05:51:53.521Z,12.40
2017-06-01T05:54:21.389Z,12.90
2017-06-01T05:56:49.273Z,12.80
2017-06-01T05:59:17.202Z,12.90
2017-06-01T06:01:45.091Z,12.70
2017-06-01T06:04:12.582Z,12.70
2017-06-01T06:06:40.830Z,13.10
2017-06-01T06:09:08.724Z,13.30
2017-06-01T06:11:36.625Z,12.80
2017-06-01T06:14:04.528Z,13.00
2017-06-01T06:16:32.408Z,13.40
2017-06-01T06:18:59.923Z,13.40
2017-06-01T06:21:28.032Z,13.50
2017-06-01T06:23:55.905Z,13.30
2017-06-01T06:26:23.786Z,13.50
2017-06-01T06:28:52.013Z,13.60
2017-06-01T06:31:19.889Z,13.50
2017-06-01T06:33:47.752Z,13.20
2017-06-01T06:36:15.925Z,13.40
2017-06-01T06:38:43.813Z,13.70
2017-06-01T06:41:11.698Z,14.00
2017-06-01T06:43:39.816Z,14.20
2017-06-01T06:46:07.699Z,14.30
2017-06-01T06:48:35.580Z,14.00
2017-06-01T06:51:03.515Z,14.00
2017-06-01T06:53:31.642Z,14.20
2017-06-01T06:55:59.543Z,14.70
2017-06-01T06:58:27.475Z,14.70
2017-06-01T07:00:55.362Z,14.80
2017-06-01T07:03:23.250Z,14.70
2017-06-01T07:05:51.421Z,14.80
2017-06-01T07:08:19.294Z,14.70
2017-06-01T07:10:47.184Z,14.70
2017-06-01T07:13:15.233Z,14.80
2017-06-01T07:15:42.717Z,14.90
2017-06-01T07:18:10.606Z,15.30
2017-06-01T07:20:38.812Z,14.90
2017-06-01T07:23:06.684Z,14.20
2017-06-01T07:25:34.556Z,14.30
2017-06-01T07:28:02.481Z,14.10
2017-06-01T07:30:30.364Z,14.20
2017-06-01T07:32:58.241Z,14.30
2017-06-01T07:35:26.433Z,14.50
2017-06-01T07:37:54.320Z,14.70
2017-06-01T07:40:22.214Z,14.50
2017-06-01T07:42:50.203Z,14.60
2017-06-01T07:45:18.334Z,14.80
2017-06-01T07:47:46.209Z,15.30
2017-06-01T07:50:14.134Z,15.60
2017-06-01T07:52:42.031Z,15.40
2017-06-01T07:55:09.985Z,15.40
2017-06-01T07:57:37.516Z,15.40
2017-06-01T08:00:05.403Z,15.20
2017-06-01T08:02:33.307Z,15.40
2017-06-01T08:05:01.516Z,15.90
2017-06-01T08:07:29.412Z,15.80
2017-06-01T08:09:58.459Z,16.00
2017-06-01T08:12:26.407Z,16.20
2017-06-01T08:14:54.293Z,16.30
2017-06-01T08:17:22.166Z,16.50
2017-06-01T08:19:50.092Z,16.70
2017-06-01T08:22:17.984Z,16.80
2017-06-01T08:24:45.902Z,16.90
2017-06-01T08:27:14.143Z,16.60
2017-06-01T08:29:42.010Z,16.30
2017-06-01T08:32:09.885Z,16.40
2017-06-01T08:34:37.398Z,16.40
2017-06-01T08:37:05.284Z,15.40
2017-06-01T08:39:33.157Z,15.60
2017-06-01T08:42:01.275Z,16.00
2017-06-01T08:44:29.149Z,16.60
2017-06-01T08:46:57.052Z,16.80
2017-06-01T08:49:25.238Z,17.20
2017-06-01T08:51:52.716Z,17.20
2017-06-01T08:54:20.593Z,16.40
2017-06-01T08:56:48.486Z,16.50
2017-06-01T08:59:15.961Z,16.60
2017-06-01T09:01:43.826Z,17.00
2017-06-01T09:04:11.997Z,17.20
2017-06-01T09:06:39.861Z,16.90
2017-06-01T09:09:07.725Z,16.60
2017-06-01T09:11:35.876Z,17.00
2017-06-01T09:14:03.741Z,16.50
2017-06-01T09:16:31.624Z,16.50
2017-06-01T09:18:59.628Z,17.10
2017-06-01T09:21:27.707Z,17.10
2017-06-01T09:23:55.578Z,17.30
2017-06-01T09:26:23.616Z,17.70
2017-06-01T09:28:51.482Z,17.80
2017-06-01T09:31:18.961Z,17.80
2017-06-01T09:33:47.099Z,17.80
2017-06-01T09:36:14.969Z,17.80
2017-06-01T09:38:43.374Z,18.00
2017-06-01T09:41:11.506Z,17.70
2017-06-01T09:43:39.388Z,17.60
2017-06-01T09:46:07.252Z,17.70
2017-06-01T09:48:35.134Z,17.90
2017-06-01T09:51:03.021Z,17.80
2017-06-01T09:53:30.908Z,18.20
2017-06-01T09:55:58.826Z,18.40
2017-06-01T09:58:26.913Z,18.40
2017-06-01T10:00:54.797Z,18.40
2017-06-01T10:03:22.787Z,18.10
2017-06-01T10:05:50.650Z,18.50
2017-06-01T10:08:18.150Z,18.50
2017-06-01T10:10:46.061Z,18.40
2017-06-01T10:13:13.924Z,18.60
2017-06-01T10:15:41.406Z,18.60
2017-06-01T10:18:09.305Z,18.60
2017-06-01T10:20:37.177Z,18.60
2017-06-01T10:23:04.669Z,18.50
2017-06-01T10:25:32.572Z,19.00
2017-06-01T10:28:00.442Z,18.80
2017-06-01T10:30:28.352Z,18.40
2017-06-01T10:32:55.869Z,18.40
2017-06-01T10:35:23.768Z,18.70
2017-06-01T10:37:51.651Z,19.20
2017-06-01T10:40:19.542Z,19.10
2017-06-01T10:42:47.411Z,19.00
2017-06-01T10:45:15.277Z,18.60
2017-06-01T10:47:43.585Z,18.60
2017-06-01T10:50:11.467Z,19.50
2017-06-01T10:52:39.332Z,19.70
2017-06-01T10:55:06.938Z,19.70
2017-06-01T10:57:34.871Z,19.80
2017-06-01T11:00:02.780Z,20.10
2017-06-01T11:02:30.705Z,19.90
2017-06-01T11:04:58.590Z,20.10
2017-06-01T11:07:26.453Z,20.20
2017-06-01T11:09:54.059Z,20.20
2017-06-01T11:12:21.947Z,20.00
2017-06-01T11:14:49.836Z,20.10
2017-06-01T11:17:17.745Z,20.70
2017-06-01T11:19:45.626Z,20.20
2017-06-01T11:22:13.527Z,19.90
2017-06-01T11:24:41.434Z,19.90
2017-06-01T11:27:09.310Z,19.50
2017-06-01T11:29:36.817Z,19.50
2017-06-01T11:32:04.738Z,20.50
2017-06-01T11:34:32.614Z,20.80
2017-06-01T11:37:00.491Z,21.00
2017-06-01T11:39:28.392Z,21.20
2017-06-01T11:41:56.280Z,21.20
2017-06-01T11:44:24.176Z,21.20
2017-06-01T11:46:52.115Z,21.30
2017-06-01T11:49:19.989Z,21.60
2017-06-01T11:51:47.894Z,21.40
2017-06-01T11:54:16.013Z,21.50
2017-06-01T11:56:43.894Z,21.80
2017-06-01T11:59:11.760Z,21.70
2017-06-01T12:01:39.869Z,21.70
2017-06-01T12:04:07.756Z,21.70
2017-06-01T12:06:35.882Z,21.70
2017-06-01T12:09:03.807Z,21.90
2017-06-01T12:11:31.693Z,22.30
2017-06-01T12:13:59.180Z,22.30
2017-06-01T12:16:27.290Z,22.20
2017-06-01T12:18:54.800Z,22.80
2017-06-01T12:21:22.666Z,23.10
2017-06-01T12:23:50.553Z,23.40
2017-06-01T12:26:18.435Z,23.90
2017-06-01T12:28:46.937Z,24.00
2017-06-01T12:31:14.862Z,22.70
2017-06-01T12:33:42.369Z,22.70
2017-06-01T12:36:10.244Z,21.80
2017-06-01T12:38:37.759Z,21.80
2017-06-01T12:41:05.630Z,23.00
2017-06-01T12:43:33.511Z,22.30
2017-06-01T12:46:01.390Z,23.10
2017-06-01T12:48:29.261Z,23.70
2017-06-01T12:50:57.137Z,24.00
2017-06-01T12:53:25.129Z,24.10
2017-06-01T12:55:53.005Z,24.40
2017-06-01T12:58:20.891Z,24.50
2017-06-01T13:00:48.890Z,24.60
2017-06-01T13:03:16.390Z,24.60
2017-06-01T13:05:44.272Z,24.70
2017-06-01T13:08:12.440Z,24.10
2017-06-01T13:10:40.333Z,23.70
2017-06-01T13:13:08.215Z,24.20
2017-06-01T13:15:36.393Z,24.60
2017-06-01T13:18:04.289Z,24.70
2017-06-01T13:20:32.164Z,24.30
2017-06-01T13:23:00.225Z,23.50
2017-06-01T13:25:28.128Z,24.20
2017-06-01T13:27:55.625Z,24.10
2017-06-01T13:30:23.537Z,24.90
2017-06-01T13:32:51.410Z,25.20
2017-06-01T13:35:19.331Z,25.00
2017-06-01T13:37:47.227Z,24.00
2017-06-01T13:40:15.093Z,23.70
2017-06-01T13:42:43.437Z,23.50
2017-06-01T13:45:11.352Z,24.20
2017-06-01T13:47:39.221Z,25.00
2017-06-01T13:50:07.129Z,25.30
2017-06-01T13:52:35.114Z,25.20
2017-06-01T13:55:03.001Z,25.60
2017-06-01T13:57:30.868Z,25.70
2017-06-01T13:59:59.037Z,26.00
2017-06-01T14:02:26.542Z,26.00
2017-06-01T14:04:54.432Z,25.80
2017-06-01T14:07:22.343Z,24.80
2017-06-01T14:09:49.825Z,24.80
2017-06-01T14:12:17.709Z,25.00
2017-06-01T14:14:45.610Z,25.10
2017-06-01T14:17:13.501Z,24.90
2017-06-01T14:19:41.364Z,25.00
2017-06-01T14:22:09.258Z,24.80
2017-06-01T14:24:37.159Z,23.40
2017-06-01T14:27:05.044Z,22.40
2017-06-01T14:29:33.143Z,23.10
2017-06-01T14:32:01.018Z,23.80
2017-06-01T14:34:28.906Z,23.80
2017-06-01T14:36:57.017Z,23.50
2017-06-01T14:39:24.881Z,23.30
2017-06-01T14:41:52.774Z,23.00
2017-06-01T14:44:21.010Z,22.40
2017-06-01T14:46:48.892Z,22.00
2017-06-01T14:49:16.403Z,22.00
2017-06-01T14:51:44.512Z,22.00
2017-06-01T14:54:12.392Z,22.30
2017-06-01T14:56:40.303Z,22.30
2017-06-01T14:59:08.513Z,21.80
2017-06-01T15:01:36.429Z,21.70
2017-06-01T15:04:04.316Z,21.10
2017-06-01T15:06:32.234Z,21.10
2017-06-01T15:09:00.119Z,21.20
2017-06-01T15:11:28.009Z,21.20
2017-06-01T15:13:56.112Z,21.20
2017-06-01T15:16:23.997Z,21.00
2017-06-01T15:18:51.485Z,21.00
2017-06-01T15:21:20.433Z,21.10
2017-06-01T15:23:48.320Z,21.10
2017-06-01T15:26:16.207Z,21.00
2017-06-01T15:28:44.366Z,20.80
2017-06-01T15:31:12.271Z,20.70
2017-06-01T15:33:40.160Z,20.60
2017-06-01T15:36:08.319Z,20.10
2017-06-01T15:38:36.197Z,20.30
2017-06-01T15:41:04.074Z,20.40
2017-06-01T15:43:31.973Z,20.50
2017-06-01T15:45:59.872Z,20.60
2017-06-01T15:48:27.761Z,20.40
2017-06-01T15:50:55.678Z,20.40
2017-06-01T15:53:24.456Z,20.30
2017-06-01T15:55:52.354Z,20.40
2017-06-01T15:58:20.374Z,20.50
2017-06-01T16:00:50.203Z,20.30
2017-06-01T16:03:18.408Z,20.50
2017-06-01T16:05:46.318Z,20.40
2017-06-01T16:08:14.198Z,20.00
2017-06-01T16:10:42.919Z,20.10
2017-06-01T16:13:10.794Z,19.80
2017-06-01T16:15:38.729Z,19.70
2017-06-01T16:18:06.620Z,19.90
2017-06-01T16:20:34.509Z,19.90
2017-06-01T16:23:02.417Z,19.90
2017-06-01T16:25:30.300Z,19.80
2017-06-01T16:27:58.187Z,20.00
2017-06-01T16:30:26.104Z,20.00
2017-06-01T16:32:53.992Z,19.90
2017-06-01T16:35:21.879Z,20.00
2017-06-01T16:37:50.068Z,19.90
2017-06-01T16:40:17.960Z,19.80
2017-06-01T16:42:45.453Z,19.90
2017-06-01T16:45:13.567Z,19.70
2017-06-01T16:47:41.078Z,19.70
2017-06-01T16:50:08.951Z,19.70
2017-06-01T16:52:37.212Z,19.60
2017-06-01T16:55:05.453Z,19.70
2017-06-01T16:57:36.371Z,19.60
2017-06-01T17:00:04.812Z,19.50
2017-06-01T17:02:32.703Z,19.20
2017-06-01T17:05:00.578Z,18.80
2017-06-01T17:07:28.603Z,19.00
2017-06-01T17:09:56.488Z,19.20
2017-06-01T17:12:24.383Z,19.30
2017-06-01T17:14:52.647Z,19.30
2017-06-01T17:17:20.533Z,19.30
2017-06-01T17:19:48.411Z,19.40
2017-06-01T17:22:16.316Z,19.40
2017-06-01T17:24:44.203Z,19.30
2017-06-01T17:27:12.735Z,19.20
2017-06-01T17:29:41.237Z,19.20
2017-06-01T17:32:09.140Z,19.00
2017-06-01T17:34:37.021Z,19.00
2017-06-01T17:37:05.057Z,19.00
2017-06-01T17:39:32.944Z,18.90
2017-06-01T17:42:00.834Z,19.00
2017-06-01T17:44:28.918Z,19.00
2017-06-01T17:46:56.807Z,18.90
2017-06-01T17:49:24.697Z,18.90
2017-06-01T17:51:52.872Z,18.80
2017-06-01T17:54:20.779Z,18.70
2017-06-01T17:56:48.676Z,18.80
2017-06-01T17:59:16.532Z,18.80
2017-06-01T18:01:44.445Z,18.60
2017-06-01T18:04:11.948Z,18.60
2017-06-01T18:06:42.964Z,18.60
2017-06-01T18:09:10.889Z,18.70
2017-06-01T18:11:38.916Z,18.60
2017-06-01T18:14:06.829Z,18.50
2017-06-01T18:16:34.773Z,18.40
2017-06-01T18:19:02.719Z,18.40
2017-06-01T18:21:30.725Z,18.40
2017-06-01T18:23:58.228Z,18.40
2017-06-01T18:26:26.324Z,18.20
2017-06-01T18:28:54.421Z,18.30
2017-06-01T18:31:22.570Z,18.30
2017-06-01T18:33:50.653Z,18.30
2017-06-01T18:36:19.000Z,18.30
2017-06-01T18:38:47.138Z,18.20
2017-06-01T18:41:15.347Z,18.10
2017-06-01T18:43:43.526Z,18.00
2017-06-01T18:46:11.870Z,18.00
2017-06-01T18:48:40.598Z,18.10
2017-06-01T18:51:08.586Z,18.10
2017-06-01T18:53:36.533Z,18.20
2017-06-01T18:56:06.616Z,18.00
2017-06-01T18:58:34.973Z,17.80
2017-06-01T19:01:03.384Z,17.70
2017-06-01T19:03:31.796Z,17.80
2017-06-01T19:06:00.285Z,17.70
2017-06-01T19:08:28.614Z,17.60
2017-06-01T19:10:57.318Z,17.60
2017-06-01T19:13:25.615Z,17.50
2017-06-01T19:15:53.913Z,17.50
2017-06-01T19:18:22.312Z,17.40
2017-06-01T19:20:50.619Z,17.30
2017-06-01T19:23:19.114Z,17.20
2017-06-01T19:25:47.675Z,17.20
2017-06-01T19:28:16.004Z,17.30
2017-06-01T19:30:44.378Z,17.30
2017-06-01T19:33:12.778Z,17.00
2017-06-01T19:35:41.334Z,16.90
2017-06-01T19:38:09.743Z,16.80
2017-06-01T19:40:38.267Z,16.70
2017-06-01T19:43:07.916Z,16.60
2017-06-01T19:45:36.369Z,16.60
2017-06-01T19:48:04.778Z,16.50
2017-06-01T19:50:33.187Z,16.50
2017-06-01T19:53:02.207Z,16.40
2017-06-01T19:55:30.223Z,16.40
2017-06-01T19:57:58.886Z,16.50
2017-06-01T20:00:27.426Z,16.50
2017-06-01T20:02:55.765Z,16.60
2017-06-01T20:05:24.395Z,16.50
2017-06-01T20:07:52.415Z,16.50
2017-06-01T20:10:20.791Z,16.40
2017-06-01T20:12:49.170Z,16.40
2017-06-01T20:15:17.988Z,16.30
2017-06-01T20:17:46.301Z,16.10
2017-06-01T20:20:14.740Z,15.90
2017-06-01T20:22:43.095Z,15.70
2017-06-01T20:25:11.423Z,15.90
2017-06-01T20:27:40.154Z,15.90
2017-06-01T20:30:08.471Z,16.00
2017-06-01T20:32:36.782Z,16.20
2017-06-01T20:35:05.243Z,16.20
2017-06-01T20:37:33.553Z,16.10
2017-06-01T20:40:01.944Z,16.10
2017-06-01T20:42:30.319Z,16.20
2017-06-01T20:44:58.598Z,16.00
2017-06-01T20:47:26.926Z,16.00
2017-06-01T20:49:55.493Z,16.00
2017-06-01T20:52:23.745Z,15.80
2017-06-01T20:54:52.023Z,15.80
2017-06-01T20:57:20.265Z,15.80
2017-06-01T20:59:48.417Z,15.60
2017-06-01T21:02:16.645Z,15.60
2017-06-01T21:04:44.490Z,15.60
2017-06-01T21:07:12.279Z,15.40
2017-06-01T21:09:40.385Z,15.70
2017-06-01T21:12:08.927Z,15.60
2017-06-01T21:14:36.946Z,15.60
2017-06-01T21:17:04.915Z,15.40
2017-06-01T21:19:32.953Z,15.30
2017-06-01T21:22:00.992Z,15.30
2017-06-01T21:24:28.982Z,15.20
2017-06-01T21:26:57.161Z,15.20
2017-06-01T21:29:25.095Z,15.10
2017-06-01T21:31:53.063Z,15.00
2017-06-01T21:34:21.047Z,14.90
2017-06-01T21:36:49.542Z,15.00
2017-06-01T21:39:17.471Z,15.10
2017-06-01T21:41:45.396Z,15.10
2017-06-01T21:44:12.891Z,15.10
2017-06-01T21:46:40.779Z,14.90
2017-06-01T21:49:08.307Z,14.90
2017-06-01T21:51:36.177Z,14.80
2017-06-01T21:54:04.062Z,14.80
2017-06-01T21:56:32.379Z,14.80
2017-06-01T21:59:00.257Z,14.70
2017-06-01T22:01:28.150Z,14.70
2017-06-01T22:03:56.065Z,14.60
2017-06-01T22:06:23.953Z,14.70
2017-06-01T22:08:51.455Z,14.70
2017-06-01T22:11:18.985Z,14.70
2017-06-01T22:13:46.887Z,14.60
2017-06-01T22:16:14.757Z,14.60
2017-06-01T22:18:42.992Z,14.40
2017-06-01T22:21:10.866Z,14.40
2017-06-01T22:23:38.761Z,14.40
2017-06-01T22:26:06.668Z,14.40
2017-06-01T22:28:34.567Z,14.30
2017-06-01T22:31:02.439Z,14.30
2017-06-01T22:33:30.334Z,14.30
2017-06-01T22:35:58.230Z,14.20
2017-06-01T22:38:26.124Z,14.20
2017-06-01T22:40:54.105Z,14.10
2017-06-01T22:43:21.970Z,14.10
2017-06-01T22:45:50.436Z,14.10
2017-06-01T22:48:18.963Z,14.10
2017-06-01T22:50:46.840Z,14.00
2017-06-01T22:53:14.721Z,14.00
2017-06-01T22:55:42.508Z,14.00
2017-06-01T22:58:10.372Z,13.90
2017-06-01T23:00:38.242Z,13.90
2017-06-01T23:03:06.382Z,13.90
2017-06-01T23:05:34.255Z,13.80
2017-06-01T23:08:02.133Z,13.80
2017-06-01T23:10:30.045Z,13.80
2017-06-01T23:12:57.913Z,13.70
2017-06-01T23:15:25.798Z,13.70
2017-06-01T23:17:53.689Z,13.70
2017-06-01T23:20:21.576Z,13.60
2017-06-01T23:22:49.086Z,13.60
2017-06-01T23:25:16.990Z,13.50
2017-06-01T23:27:44.877Z,13.50
2017-06-01T23:30:12.741Z,13.50
2017-06-01T23:32:40.660Z,13.40
2017-06-01T23:35:08.553Z,13.50
2017-06-01T23:37:36.437Z,13.40
2017-06-01T23:40:04.688Z,13.40
2017-06-01T23:42:32.569Z,13.40
2017-06-01T23:45:00.441Z,13.40
2017-06-01T23:47:28.678Z,13.30
2017-06-01T23:49:56.170Z,13.30
2017-06-01T23:52:24.071Z,13.30
2017-06-01T23:54:52.063Z,13.20
2017-06-01T23:57:20.583Z,13.20
2017-06-01T23:59:48.463Z,13.10
